Time,TemperatureF,DewpointF,PressureIn,WindDirection,WindDirectionDegrees,WindSpeedMPH,WindSpeedGustMPH,Humidity,HourlyPrecipIn,Conditions,Clouds,dailyrainin,SolarRadiationWatts/m^2,SoftwareType,DateUTC
2013-05-19 07:45:00,50.9,44.3,30.21,West,268,1.0,6.0,78,0.00,,,0.00,181,Wunderground v.1.15,2013-05-19 14:45:00,
2013-05-19 07:50:00,51.1,44.5,30.21,East,94,1.0,6.0,78,0.00,,,0.00,193,Wunderground v.1.15,2013-05-19 14:50:00,
2013-05-19 08:00:00,51.4,44.4,30.22,SE,130,1.0,1.0,77,0.00,,,0.00,202,Wunderground v.1.15,2013-05-19 15:00:00,
2013-05-19 08:05:00,51.5,44.9,30.22,SSE,148,1.0,2.0,78,0.00,,,0.00,218,Wunderground v.1.15,2013-05-19 15:05:00,
2013-05-19 08:15:00,52.2,44.9,30.21,South,169,2.0,5.0,76,0.00,,,0.00,624,Wunderground v.1.15,2013-05-19 15:15:00,
2013-05-19 08:25:00,53.0,44.6,30.22,South,172,2.0,5.0,73,0.00,,,0.00,316,Wunderground v.1.15,2013-05-19 15:25:00,
2013-05-19 08:35:00,52.8,45.1,30.22,South,172,2.0,5.0,75,0.00,,,0.00,378,Wunderground v.1.15,2013-05-19 15:35:00,
2013-05-19 08:40:00,52.7,44.6,30.22,ESE,121,2.0,2.0,74,0.00,,,0.00,332,Wunderground v.1.15,2013-05-19 15:40:00,
2013-05-19 08:45:00,53.4,45.3,30.22,SW,221,1.0,8.0,74,0.00,,,0.00,540,Wunderground v.1.15,2013-05-19 15:45:00,
2013-05-19 08:55:00,53.5,45.4,30.22,SE,136,2.0,8.0,74,0.00,,,0.00,397,Wunderground v.1.15,2013-05-19 15:55:00,
2013-05-19 09:05:00,54.3,45.1,30.22,SSE,163,2.0,8.0,71,0.00,,,0.00,432,Wunderground v.1.15,2013-05-19 16:05:00,
2013-05-19 09:10:00,54.7,45.5,30.22,East,82,2.0,8.0,71,0.00,,,0.00,527,Wunderground v.1.15,2013-05-19 16:10:00,
2013-05-19 09:20:00,54.9,45.3,30.22,SE,130,1.0,8.0,70,0.00,,,0.00,394,Wunderground v.1.15,2013-05-19 16:20:00,
2013-05-19 09:25:00,55.1,45.9,30.22,SW,236,2.0,8.0,71,0.00,,,0.00,339,Wunderground v.1.15,2013-05-19 16:25:00,
2013-05-19 09:30:00,54.6,44.6,30.22,SE,140,2.0,2.0,69,0.00,,,0.00,359,Wunderground v.1.15,2013-05-19 16:30:00,
2013-05-19 09:35:00,55.0,45.4,30.22,SE,138,2.0,4.0,70,0.00,,,0.00,367,Wunderground v.1.15,2013-05-19 16:35:00,
2013-05-19 09:40:00,54.9,44.9,30.22,SE,132,2.0,7.0,69,0.00,,,0.00,374,Wunderground v.1.15,2013-05-19 16:40:00,
2013-05-19 09:50:00,54.6,44.6,30.22,SSE,149,2.0,2.0,69,0.00,,,0.00,313,Wunderground v.1.15,2013-05-19 16:50:00,
2013-05-19 10:00:00,54.8,45.2,30.22,SE,126,3.0,3.0,70,0.00,,,0.00,313,Wunderground v.1.15,2013-05-19 17:00:00,
2013-05-19 10:10:00,55.3,44.9,30.22,SW,229,1.0,1.0,68,0.00,,,0.00,315,Wunderground v.1.15,2013-05-19 17:10:00,
2013-05-19 10:15:00,55.4,45.0,30.22,SE,146,1.0,2.0,68,0.00,,,0.00,397,Wunderground v.1.15,2013-05-19 17:15:00,
2013-05-19 10:25:00,55.7,44.9,30.22,SE,142,1.0,7.0,67,0.00,,,0.00,406,Wunderground v.1.15,2013-05-19 17:25:00,
2013-05-19 10:30:00,55.8,45.4,30.22,East,98,2.0,2.0,68,0.00,,,0.00,504,Wunderground v.1.15,2013-05-19 17:30:00,
2013-05-19 10:35:00,56.2,45.8,30.22,SW,236,1.0,7.0,68,0.00,,,0.00,582,Wunderground v.1.15,2013-05-19 17:35:00,
2013-05-19 10:40:00,56.7,45.9,30.22,SSE,147,2.0,8.0,67,0.00,,,0.00,494,Wunderground v.1.15,2013-05-19 17:40:00,
2013-05-19 10:50:00,57.1,46.2,30.23,SE,129,2.0,2.0,67,0.00,,,0.00,471,Wunderground v.1.15,2013-05-19 17:50:00,
2013-05-19 11:00:00,57.5,46.6,30.22,ESE,115,1.0,1.0,67,0.00,,,0.00,559,Wunderground v.1.15,2013-05-19 18:00:00,
2013-05-19 11:10:00,58.1,46.0,30.22,SSW,212,1.0,1.0,64,0.00,,,0.00,575,Wunderground v.1.15,2013-05-19 18:10:00,
2013-05-19 11:20:00,59.4,46.4,30.22,WSW,246,1.0,6.0,62,0.00,,,0.00,378,Wunderground v.1.15,2013-05-19 18:20:00,
2013-05-19 11:30:00,59.7,47.1,30.22,NW,307,1.0,1.0,63,0.00,,,0.00,916,Wunderground v.1.15,2013-05-19 18:30:00,
2013-05-19 11:40:00,60.5,47.0,30.22,WSW,257,1.0,1.0,61,0.00,,,0.00,385,Wunderground v.1.15,2013-05-19 18:40:00,
2013-05-19 11:50:00,60.0,46.5,30.22,SE,131,1.0,1.0,61,0.00,,,0.00,424,Wunderground v.1.15,2013-05-19 18:50:00,
2013-05-19 11:55:00,60.2,46.7,30.22,SSE,161,1.0,2.0,61,0.00,,,0.00,621,Wunderground v.1.15,2013-05-19 18:55:00,
2013-05-19 12:00:00,60.2,46.7,30.22,ESE,117,2.0,6.0,61,0.00,,,0.00,401,Wunderground v.1.15,2013-05-19 19:00:00,
2013-05-19 12:10:00,59.9,45.5,30.21,WSW,257,2.0,2.0,59,0.00,,,0.00,383,Wunderground v.1.15,2013-05-19 19:10:00,
2013-05-19 12:15:00,60.2,46.7,30.21,East,98,1.0,3.0,61,0.00,,,0.00,540,Wunderground v.1.15,2013-05-19 19:15:00,
2013-05-19 12:20:00,60.1,46.2,30.21,NE,51,2.0,2.0,60,0.00,,,0.00,501,Wunderground v.1.15,2013-05-19 19:20:00,
2013-05-19 12:25:00,61.0,48.3,30.21,ESE,104,3.0,3.0,63,0.00,,,0.00,935,Wunderground v.1.15,2013-05-19 19:25:00,
2013-05-19 12:35:00,62.8,46.4,30.21,WNW,294,1.0,6.0,55,0.00,,,0.00,559,Wunderground v.1.15,2013-05-19 19:35:00,
2013-05-19 12:40:00,62.6,46.7,30.21,East,97,1.0,8.0,56,0.00,,,0.00,443,Wunderground v.1.15,2013-05-19 19:40:00,
2013-05-19 12:45:00,62.7,47.7,30.21,WSW,237,1.0,8.0,58,0.00,,,0.00,824,Wunderground v.1.15,2013-05-19 19:45:00,
2013-05-19 12:50:00,62.3,46.9,30.20,West,277,1.0,8.0,57,0.00,,,0.00,322,Wunderground v.1.15,2013-05-19 19:50:00,
2013-05-19 12:55:00,62.1,46.7,30.21,SE,138,2.0,8.0,57,0.00,,,0.00,251,Wunderground v.1.15,2013-05-19 19:55:00,
2013-05-19 13:05:00,63.6,47.6,30.20,ENE,78,1.0,8.0,56,0.00,,,0.00,930,Wunderground v.1.15,2013-05-19 20:05:00,
2013-05-19 13:10:00,62.7,46.3,30.20,NE,56,2.0,6.0,55,0.00,,,0.00,944,Wunderground v.1.15,2013-05-19 20:10:00,
2013-05-19 13:20:00,63.5,47.0,30.20,ESE,123,2.0,6.0,55,0.00,,,0.00,981,Wunderground v.1.15,2013-05-19 20:20:00,
2013-05-19 13:25:00,63.8,47.8,30.20,SE,131,2.0,6.0,56,0.00,,,0.00,993,Wunderground v.1.15,2013-05-19 20:25:00,
2013-05-19 13:35:00,64.1,45.6,30.20,NNE,24,2.0,6.0,51,0.00,,,0.00,248,Wunderground v.1.15,2013-05-19 20:35:00,
2013-05-19 13:40:00,64.5,46.0,30.20,North,5,2.0,2.0,51,0.00,,,0.00,359,Wunderground v.1.15,2013-05-19 20:40:00,
2013-05-19 13:50:00,65.2,47.1,30.19,WSW,248,2.0,7.0,52,0.00,,,0.00,469,Wunderground v.1.15,2013-05-19 20:50:00,
2013-05-19 14:00:00,64.9,46.8,30.19,West,268,2.0,7.0,52,0.00,,,0.00,295,Wunderground v.1.15,2013-05-19 21:00:00,
2013-05-19 14:10:00,65.2,47.1,30.19,SW,215,1.0,10.0,52,0.00,,,0.00,1143,Wunderground v.1.15,2013-05-19 21:10:00,
2013-05-19 14:15:00,64.7,47.2,30.19,SSE,150,1.0,10.0,53,0.00,,,0.00,1025,Wunderground v.1.15,2013-05-19 21:15:00,
2013-05-19 14:20:00,66.0,46.8,30.19,SSE,152,2.0,2.0,50,0.00,,,0.00,1071,Wunderground v.1.15,2013-05-19 21:20:00,
2013-05-19 14:25:00,67.0,46.7,30.19,East,90,1.0,10.0,48,0.00,,,0.00,1148,Wunderground v.1.15,2013-05-19 21:25:00,
2013-05-19 14:30:00,65.7,46.5,30.19,NE,55,1.0,10.0,50,0.00,,,0.00,311,Wunderground v.1.15,2013-05-19 21:30:00,
2013-05-19 14:35:00,65.0,46.9,30.19,ESE,111,1.0,10.0,52,0.00,,,0.00,439,Wunderground v.1.15,2013-05-19 21:35:00,
2013-05-19 14:40:00,65.7,47.6,30.19,South,180,1.0,1.0,52,0.00,,,0.00,466,Wunderground v.1.15,2013-05-19 21:40:00,
2013-05-19 14:45:00,65.6,47.0,30.19,ENE,57,1.0,4.0,51,0.00,,,0.00,272,Wunderground v.1.15,2013-05-19 21:45:00,
2013-05-19 14:50:00,64.9,46.3,30.19,East,79,2.0,2.0,51,0.00,,,0.00,227,Wunderground v.1.15,2013-05-19 21:50:00,
2013-05-19 14:55:00,64.5,45.4,30.19,ENE,62,2.0,5.0,50,0.00,,,0.00,216,Wunderground v.1.15,2013-05-19 21:55:00,
2013-05-19 15:00:00,64.6,46.6,30.19,NE,43,1.0,1.0,52,0.00,,,0.00,160,Wunderground v.1.15,2013-05-19 22:00:00,
2013-05-19 15:10:00,64.8,46.2,30.19,NE,42,1.0,1.0,51,0.00,,,0.00,181,Wunderground v.1.15,2013-05-19 22:10:00,
2013-05-19 15:20:00,64.1,46.1,30.18,East,89,2.0,6.0,52,0.00,,,0.00,144,Wunderground v.1.15,2013-05-19 22:20:00,
2013-05-19 15:30:00,63.6,46.1,30.19,East,98,3.0,3.0,53,0.00,,,0.00,134,Wunderground v.1.15,2013-05-19 22:30:00,
2013-05-19 15:40:00,64.7,49.1,30.18,East,92,1.0,8.0,57,0.00,,,0.00,842,Wunderground v.1.15,2013-05-19 22:40:00,
2013-05-19 15:50:00,66.0,48.4,30.18,WSW,245,2.0,2.0,53,0.00,,,0.00,775,Wunderground v.1.15,2013-05-19 22:50:00,
2013-05-19 16:00:00,66.7,48.5,30.19,West,281,2.0,2.0,52,0.00,,,0.00,772,Wunderground v.1.15,2013-05-19 23:00:00,
2013-05-19 16:10:00,66.3,46.0,30.19,West,267,2.0,7.0,48,0.00,,,0.00,167,Wunderground v.1.15,2013-05-19 23:10:00,
2013-05-19 16:20:00,64.9,47.4,30.19,West,269,2.0,2.0,53,0.00,,,0.00,729,Wunderground v.1.15,2013-05-19 23:20:00,
2013-05-19 16:30:00,65.6,49.5,30.19,WSW,246,2.0,7.0,56,0.00,,,0.00,608,Wunderground v.1.15,2013-05-19 23:30:00,
2013-05-19 16:40:00,65.6,49.0,30.19,West,279,2.0,8.0,55,0.00,,,0.00,628,Wunderground v.1.15,2013-05-19 23:40:00,
2013-05-19 16:45:00,65.8,48.7,30.19,WSW,258,2.0,8.0,54,0.00,,,0.00,598,Wunderground v.1.15,2013-05-19 23:45:00,
2013-05-19 16:50:00,65.7,48.1,30.18,SSE,165,3.0,3.0,53,0.00,,,0.00,563,Wunderground v.1.15,2013-05-19 23:50:00,
2013-05-19 16:55:00,66.0,48.4,30.19,WSW,257,3.0,9.0,53,0.00,,,0.00,547,Wunderground v.1.15,2013-05-19 23:55:00,
2013-05-19 17:00:00,66.1,48.0,30.18,WSW,249,3.0,3.0,52,0.00,,,0.00,536,Wunderground v.1.15,2013-05-20 00:00:00,
2013-05-19 17:05:00,66.5,47.8,30.18,WSW,240,3.0,5.0,51,0.00,,,0.00,548,Wunderground v.1.15,2013-05-20 00:05:00,
2013-05-19 17:10:00,66.1,47.4,30.18,West,267,3.0,3.0,51,0.00,,,0.00,561,Wunderground v.1.15,2013-05-20 00:10:00,
2013-05-19 17:15:00,65.7,47.1,30.18,West,260,3.0,10.0,51,0.00,,,0.00,130,Wunderground v.1.15,2013-05-20 00:15:00,
2013-05-19 17:25:00,64.7,47.7,30.18,WNW,287,3.0,10.0,54,0.00,,,0.00,109,Wunderground v.1.15,2013-05-20 00:25:00,
2013-05-19 17:30:00,64.4,47.9,30.18,SSE,163,2.0,2.0,55,0.00,,,0.00,88,Wunderground v.1.15,2013-05-20 00:30:00,
2013-05-19 17:35:00,64.2,48.2,30.19,SW,236,1.0,4.0,56,0.00,,,0.00,76,Wunderground v.1.15,2013-05-20 00:35:00,
2013-05-19 17:40:00,63.8,48.3,30.19,WSW,256,2.0,9.0,57,0.00,,,0.00,74,Wunderground v.1.15,2013-05-20 00:40:00,
2013-05-19 17:45:00,63.6,50.3,30.19,West,265,2.0,9.0,62,0.00,,,0.00,74,Wunderground v.1.15,2013-05-20 00:45:00,
2013-05-19 17:55:00,62.9,50.1,30.18,WSW,240,1.0,9.0,63,0.00,,,0.00,76,Wunderground v.1.15,2013-05-20 00:55:00,
2013-05-19 18:05:00,62.6,50.2,30.18,SSW,210,1.0,9.0,64,0.00,,,0.00,84,Wunderground v.1.15,2013-05-20 01:05:00,
2013-05-19 18:10:00,62.7,49.5,30.18,WSW,245,1.0,1.0,62,0.00,,,0.00,93,Wunderground v.1.15,2013-05-20 01:10:00,
2013-05-19 18:20:00,62.8,48.3,30.18,SW,233,1.0,1.0,59,0.00,,,0.00,98,Wunderground v.1.15,2013-05-20 01:20:00,
2013-05-19 18:25:00,62.9,49.2,30.18,SW,233,1.0,2.0,61,0.00,,,0.00,98,Wunderground v.1.15,2013-05-20 01:25:00,
2013-05-19 18:30:00,63.2,48.2,30.18,SSE,160,0.0,5.0,58,0.00,,,0.00,287,Wunderground v.1.15,2013-05-20 01:30:00,
2013-05-19 18:35:00,63.9,47.9,30.18,SSW,194,1.0,5.0,56,0.00,,,0.00,279,Wunderground v.1.15,2013-05-20 01:35:00,
2013-05-19 18:40:00,64.5,48.0,30.18,WSW,238,1.0,4.0,55,0.00,,,0.00,271,Wunderground v.1.15,2013-05-20 01:40:00,
2013-05-19 18:45:00,65.0,48.4,30.18,SSW,205,1.0,4.0,55,0.00,,,0.00,236,Wunderground v.1.15,2013-05-20 01:45:00,
2013-05-19 18:50:00,65.4,48.3,30.18,SW,235,1.0,4.0,54,0.00,,,0.00,267,Wunderground v.1.15,2013-05-20 01:50:00,
2013-05-19 18:55:00,65.6,48.0,30.18,West,273,1.0,4.0,53,0.00,,,0.00,98,Wunderground v.1.15,2013-05-20 01:55:00,
2013-05-19 19:00:00,65.3,48.2,30.18,WSW,255,1.0,4.0,54,0.00,,,0.00,102,Wunderground v.1.15,2013-05-20 02:00:00,
2013-05-19 19:05:00,64.7,48.6,30.19,WSW,252,1.0,4.0,56,0.00,,,0.00,104,Wunderground v.1.15,2013-05-20 02:05:00,
2013-05-19 19:10:00,64.3,48.7,30.19,WSW,257,1.0,5.0,57,0.00,,,0.00,84,Wunderground v.1.15,2013-05-20 02:10:00,
2013-05-19 19:20:00,63.8,48.3,30.19,WSW,240,1.0,1.0,57,0.00,,,0.00,53,Wunderground v.1.15,2013-05-20 02:20:00,
2013-05-19 19:25:00,63.6,48.1,30.19,West,279,1.0,5.0,57,0.00,,,0.00,42,Wunderground v.1.15,2013-05-20 02:25:00,
2013-05-19 19:30:00,63.5,48.5,30.19,NNW,329,1.0,5.0,58,0.00,,,0.00,30,Wunderground v.1.15,2013-05-20 02:30:00,
2013-05-19 19:35:00,63.4,48.8,30.20,North,355,1.0,5.0,59,0.00,,,0.00,28,Wunderground v.1.15,2013-05-20 02:35:00,
2013-05-19 19:40:00,63.1,48.5,30.20,NE,36,1.0,4.0,59,0.00,,,0.00,21,Wunderground v.1.15,2013-05-20 02:40:00,
2013-05-19 19:50:00,62.2,47.7,30.20,NNW,347,2.0,2.0,59,0.00,,,0.00,12,Wunderground v.1.15,2013-05-20 02:50:00,